Terminal Aerodrome Forecast
Issued by NWS

Home | Current Version | Previous Version | Text Only | Print | Product List | Glossary On
Versions: 1 2 3 4 5 6 7 8 9 10 11 12 13 14 15 16 17 18 19 20
000
FTUS43 KMQT 182300
TAFCMX
TAF
KCMX 182335Z 1900/1924 VRB03KT P6SM SCT200
     FM190600 10006KT P6SM BKN090
     FM191600 11013G20KT 5SM -SHRA OVC035=

USA.gov is the U.S. government's official web portal to all federal, state and local government web resources and services.